Time,TemperatureF,DewpointF,PressureIn,WindDirection,WindDirectionDegrees,WindSpeedMPH,WindSpeedGustMPH,Humidity,HourlyPrecipIn,Conditions,Clouds,dailyrainin,SolarRadiationWatts/m^2,SoftwareType,DateUTC
2013-02-24 00:00:00,34.0,33.5,30.48,South,190,0.0,1.0,98,0.00,,---,0.00,0.00,VWS V14.01,2013-02-24 08:00:00,
2013-02-24 00:05:00,34.0,33.5,30.48,South,190,0.0,1.0,98,0.00,,---,0.00,0.00,VWS V14.01,2013-02-24 08:05:00,
2013-02-24 00:10:00,34.0,33.5,30.48,South,190,0.0,0.0,98,0.00,,---,0.00,0.00,VWS V14.01,2013-02-24 08:10:00,
2013-02-24 00:15:00,33.9,33.4,30.48,South,190,0.0,0.0,98,0.00,,---,0.00,0.00,VWS V14.01,2013-02-24 08:15:00,
2013-02-24 00:20:00,33.7,32.9,30.48,South,190,0.0,1.0,97,0.00,,---,0.00,0.00,VWS V14.01,2013-02-24 08:20:00,
2013-02-24 00:25:00,33.6,32.8,30.48,South,190,0.0,1.0,97,0.00,,---,0.00,0.00,VWS V14.01,2013-02-24 08:25:00,
2013-02-24 00:30:00,33.5,32.7,30.47,South,190,1.0,2.0,97,0.00,,---,0.00,0.00,VWS V14.01,2013-02-24 08:30:00,
2013-02-24 00:34:00,33.5,32.7,30.47,South,190,0.0,2.0,97,0.00,,---,0.00,0.00,VWS V14.01,2013-02-24 08:34:00,
2013-02-24 00:39:00,33.3,32.5,30.48,South,190,0.0,1.0,97,0.00,,---,0.00,0.00,VWS V14.01,2013-02-24 08:39:00,
2013-02-24 00:40:00,33.4,32.6,30.48,South,190,1.0,2.0,97,0.00,,---,0.00,0.00,VWS V14.01,2013-02-24 08:40:00,
2013-02-24 00:44:00,33.1,32.3,30.48,South,190,1.0,2.0,97,0.00,,---,0.00,0.00,VWS V14.01,2013-02-24 08:44:00,
2013-02-24 00:49:00,33.0,32.2,30.47,South,190,1.0,2.0,97,0.00,,---,0.00,0.00,VWS V14.01,2013-02-24 08:49:00,
2013-02-24 00:50:00,33.0,32.2,30.48,South,190,0.0,2.0,97,0.00,,---,0.00,0.00,VWS V14.01,2013-02-24 08:50:00,
2013-02-24 00:54:00,33.0,32.2,30.48,South,190,0.0,2.0,97,0.00,,---,0.00,0.00,VWS V14.01,2013-02-24 08:54:00,
2013-02-24 00:59:00,32.9,32.1,30.48,South,190,0.0,0.0,97,0.00,,---,0.00,0.00,VWS V14.01,2013-02-24 08:59:00,
2013-02-24 01:00:00,33.0,32.2,30.47,South,190,0.0,2.0,97,0.00,,---,0.00,0.00,VWS V14.01,2013-02-24 09:00:00,
2013-02-24 01:04:00,32.8,32.0,30.47,South,190,0.0,2.0,97,0.00,,---,0.00,0.00,VWS V14.01,2013-02-24 09:04:00,
2013-02-24 01:09:00,32.7,31.9,30.48,South,190,2.0,2.0,97,0.00,,---,0.00,0.00,VWS V14.01,2013-02-24 09:09:00,
2013-02-24 01:10:00,32.8,32.0,30.48,South,190,0.0,2.0,97,0.00,,---,0.00,0.00,VWS V14.01,2013-02-24 09:10:00,
2013-02-24 01:14:00,32.6,31.8,30.48,South,190,0.0,2.0,97,0.00,,---,0.00,0.00,VWS V14.01,2013-02-24 09:14:00,
2013-02-24 01:19:00,32.6,31.8,30.48,South,190,0.0,0.0,97,0.00,,---,0.00,0.00,VWS V14.01,2013-02-24 09:19:00,
2013-02-24 01:20:00,32.6,31.8,30.48,South,190,0.0,2.0,97,0.00,,---,0.00,0.00,VWS V14.01,2013-02-24 09:20:00,
2013-02-24 01:24:00,32.6,31.8,30.48,South,190,0.0,0.0,97,0.00,,---,0.00,0.00,VWS V14.01,2013-02-24 09:24:00,
2013-02-24 01:29:00,32.5,31.7,30.48,South,190,0.0,0.0,97,0.00,,---,0.00,0.00,VWS V14.01,2013-02-24 09:29:00,
2013-02-24 01:30:00,31.9,31.1,30.49,South,190,0.0,1.0,97,0.00,,---,0.00,0.00,VWS V14.01,2013-02-24 09:30:00,
2013-02-24 01:34:00,32.6,31.8,30.48,South,190,0.0,0.0,97,0.00,,---,0.00,0.00,VWS V14.01,2013-02-24 09:34:00,
2013-02-24 01:39:00,32.4,31.6,30.48,South,190,0.0,1.0,97,0.00,,---,0.00,0.00,VWS V14.01,2013-02-24 09:39:00,
2013-02-24 01:40:00,32.5,31.8,30.48,South,190,0.0,0.0,97,0.00,,---,0.00,0.00,VWS V14.01,2013-02-24 09:40:00,
2013-02-24 01:44:00,32.4,31.6,30.48,South,190,0.0,1.0,97,0.00,,---,0.00,0.00,VWS V14.01,2013-02-24 09:44:00,
2013-02-24 01:49:00,32.3,31.5,30.48,South,190,0.0,1.0,97,0.00,,---,0.00,0.00,VWS V14.01,2013-02-24 09:49:00,
2013-02-24 01:50:00,32.4,31.6,30.48,South,190,0.0,1.0,97,0.00,,---,0.00,0.00,VWS V14.01,2013-02-24 09:50:00,
2013-02-24 01:54:00,32.3,31.5,30.48,South,190,0.0,1.0,97,0.00,,---,0.00,0.00,VWS V14.01,2013-02-24 09:54:00,
2013-02-24 01:59:00,32.2,31.5,30.49,South,190,1.0,1.0,97,0.00,,---,0.00,0.00,VWS V14.01,2013-02-24 09:59:00,
2013-02-24 02:00:00,32.2,31.5,30.48,South,190,0.0,1.0,97,0.00,,---,0.00,0.00,VWS V14.01,2013-02-24 10:00:00,
2013-02-24 02:04:00,32.1,31.4,30.49,South,190,0.0,1.0,97,0.00,,---,0.00,0.00,VWS V14.01,2013-02-24 10:04:00,
2013-02-24 02:09:00,32.0,31.2,30.49,South,190,0.0,0.0,97,0.00,,---,0.00,0.00,VWS V14.01,2013-02-24 10:09:00,
2013-02-24 02:10:00,32.0,31.2,30.49,South,190,0.0,1.0,97,0.00,,---,0.00,0.00,VWS V14.01,2013-02-24 10:10:00,
2013-02-24 02:14:00,31.9,31.1,30.49,South,190,0.0,0.0,97,0.00,,---,0.00,0.00,VWS V14.01,2013-02-24 10:14:00,
2013-02-24 02:19:00,31.8,31.0,30.49,South,190,0.0,0.0,97,0.00,,---,0.00,0.00,VWS V14.01,2013-02-24 10:19:00,
2013-02-24 02:20:00,31.8,31.0,30.49,South,190,0.0,0.0,97,0.00,,---,0.00,0.00,VWS V14.01,2013-02-24 10:20:00,
2013-02-24 02:24:00,31.9,31.1,30.49,South,190,0.0,0.0,97,0.00,,---,0.00,0.00,VWS V14.01,2013-02-24 10:24:00,
2013-02-24 02:29:00,31.9,31.1,30.49,South,190,0.0,0.0,97,0.00,,---,0.00,0.00,VWS V14.01,2013-02-24 10:29:00,
2013-02-24 02:30:00,31.9,31.1,30.49,South,190,0.0,1.0,97,0.00,,---,0.00,0.00,VWS V14.01,2013-02-24 10:30:00,
2013-02-24 02:34:00,31.9,31.1,30.49,South,190,0.0,0.0,97,0.00,,---,0.00,0.00,VWS V14.01,2013-02-24 10:34:00,
2013-02-24 02:39:00,31.9,31.1,30.49,South,190,0.0,0.0,97,0.00,,---,0.00,0.00,VWS V14.01,2013-02-24 10:39:00,
2013-02-24 02:40:00,31.9,31.1,30.49,South,190,0.0,0.0,97,0.00,,---,0.00,0.00,VWS V14.01,2013-02-24 10:40:00,
2013-02-24 02:44:00,32.0,31.2,30.48,South,190,0.0,1.0,97,0.00,,---,0.00,0.00,VWS V14.01,2013-02-24 10:44:00,
2013-02-24 02:49:00,32.0,31.2,30.49,South,190,0.0,0.0,97,0.00,,---,0.00,0.00,VWS V14.01,2013-02-24 10:49:00,
2013-02-24 02:50:00,32.0,31.2,30.48,South,190,0.0,1.0,97,0.00,,---,0.00,0.00,VWS V14.01,2013-02-24 10:50:00,
2013-02-24 02:54:00,32.0,31.2,30.48,South,190,0.0,0.0,97,0.00,,---,0.00,0.00,VWS V14.01,2013-02-24 10:54:00,
2013-02-24 02:59:00,32.1,31.4,30.48,South,190,1.0,1.0,97,0.00,,---,0.00,0.00,VWS V14.01,2013-02-24 10:59:00,
2013-02-24 03:00:00,32.1,31.4,30.48,South,190,0.0,0.0,97,0.00,,---,0.00,0.00,VWS V14.01,2013-02-24 11:00:00,
2013-02-24 03:04:00,32.2,31.7,30.48,South,190,0.0,1.0,98,0.00,,---,0.00,0.00,VWS V14.01,2013-02-24 11:04:00,
2013-02-24 03:09:00,32.2,31.7,30.48,South,190,0.0,0.0,98,0.00,,---,0.00,0.00,VWS V14.01,2013-02-24 11:09:00,
2013-02-24 03:10:00,32.2,31.7,30.48,South,190,0.0,1.0,98,0.00,,---,0.00,0.00,VWS V14.01,2013-02-24 11:10:00,
2013-02-24 03:14:00,32.2,31.7,30.48,South,190,0.0,0.0,98,0.00,,---,0.00,0.00,VWS V14.01,2013-02-24 11:14:00,
2013-02-24 03:19:00,32.2,31.7,30.48,South,190,0.0,0.0,98,0.00,,---,0.00,0.00,VWS V14.01,2013-02-24 11:19:00,
2013-02-24 03:20:00,32.1,31.4,30.48,South,190,0.0,0.0,97,0.00,,---,0.00,0.00,VWS V14.01,2013-02-24 11:20:00,
2013-02-24 03:24:00,32.1,31.4,30.48,South,190,0.0,0.0,97,0.00,,---,0.00,0.00,VWS V14.01,2013-02-24 11:24:00,
2013-02-24 03:29:00,32.1,31.4,30.48,South,190,0.0,0.0,97,0.00,,---,0.00,0.00,VWS V14.01,2013-02-24 11:29:00,
2013-02-24 03:30:00,32.1,31.4,30.48,South,190,0.0,0.0,97,0.00,,---,0.00,0.00,VWS V14.01,2013-02-24 11:30:00,
2013-02-24 03:34:00,32.1,31.4,30.48,South,190,0.0,0.0,97,0.00,,---,0.00,0.00,VWS V14.01,2013-02-24 11:34:00,
2013-02-24 03:39:00,32.1,31.4,30.48,South,190,0.0,0.0,97,0.00,,---,0.00,0.00,VWS V14.01,2013-02-24 11:39:00,
2013-02-24 03:40:00,32.1,31.4,30.48,South,190,0.0,0.0,97,0.00,,---,0.00,0.00,VWS V14.01,2013-02-24 11:40:00,
2013-02-24 03:44:00,32.1,31.4,30.48,South,190,1.0,2.0,97,0.00,,---,0.00,0.00,VWS V14.01,2013-02-24 11:44:00,
2013-02-24 03:49:00,32.3,31.8,30.48,South,190,0.0,0.0,98,0.00,,---,0.00,0.00,VWS V14.01,2013-02-24 11:49:00,
2013-02-24 03:50:00,32.2,31.7,30.48,South,190,0.0,2.0,98,0.00,,---,0.00,0.00,VWS V14.01,2013-02-24 11:50:00,
2013-02-24 03:54:00,32.3,31.8,30.48,South,190,0.0,0.0,98,0.00,,---,0.00,0.00,VWS V14.01,2013-02-24 11:54:00,
2013-02-24 03:59:00,32.4,31.9,30.48,South,190,0.0,1.0,98,0.00,,---,0.00,0.00,VWS V14.01,2013-02-24 11:59:00,
2013-02-24 04:00:00,32.3,31.8,30.47,South,190,0.0,0.0,98,0.00,,---,0.00,0.00,VWS V14.01,2013-02-24 12:00:00,
2013-02-24 04:04:00,32.4,31.9,30.47,South,190,0.0,1.0,98,0.00,,---,0.00,0.00,VWS V14.01,2013-02-24 12:04:00,
2013-02-24 04:09:00,32.5,32.0,30.47,South,190,0.0,0.0,98,0.00,,---,0.00,0.00,VWS V14.01,2013-02-24 12:09:00,
2013-02-24 04:10:00,32.5,32.0,30.47,South,190,0.0,1.0,98,0.00,,---,0.00,0.00,VWS V14.01,2013-02-24 12:10:00,
2013-02-24 04:14:00,32.5,32.0,30.47,South,190,0.0,0.0,98,0.00,,---,0.00,0.00,VWS V14.01,2013-02-24 12:14:00,
2013-02-24 04:19:00,32.6,32.1,30.47,South,190,0.0,0.0,98,0.00,,---,0.00,0.00,VWS V14.01,2013-02-24 12:19:00,
2013-02-24 04:20:00,32.5,32.0,30.47,South,190,0.0,0.0,98,0.00,,---,0.00,0.00,VWS V14.01,2013-02-24 12:20:00,
2013-02-24 04:24:00,32.6,32.1,30.47,South,190,0.0,1.0,98,0.00,,---,0.00,0.00,VWS V14.01,2013-02-24 12:24:00,
2013-02-24 04:29:00,32.6,32.1,30.48,South,190,0.0,2.0,98,0.00,,---,0.00,0.00,VWS V14.01,2013-02-24 12:29:00,
2013-02-24 04:30:00,32.6,32.1,30.47,South,190,0.0,1.0,98,0.00,,---,0.00,0.00,VWS V14.01,2013-02-24 12:30:00,
2013-02-24 04:34:00,32.7,32.2,30.47,South,190,0.0,2.0,98,0.00,,---,0.00,0.00,VWS V14.01,2013-02-24 12:34:00,
2013-02-24 04:39:00,32.8,32.3,30.47,South,190,0.0,0.0,98,0.00,,---,0.00,0.00,VWS V14.01,2013-02-24 12:39:00,
2013-02-24 04:40:00,32.8,32.3,30.47,South,190,0.0,2.0,98,0.00,,---,0.00,0.00,VWS V14.01,2013-02-24 12:40:00,
2013-02-24 04:44:00,32.8,32.3,30.47,South,190,0.0,0.0,98,0.00,,---,0.00,0.00,VWS V14.01,2013-02-24 12:44:00,
2013-02-24 04:49:00,32.8,32.3,30.47,South,190,0.0,2.0,98,0.00,,---,0.00,0.00,VWS V14.01,2013-02-24 12:49:00,
2013-02-24 04:50:00,32.8,32.3,30.47,South,190,0.0,1.0,98,0.00,,---,0.00,0.00,VWS V14.01,2013-02-24 12:50:00,
2013-02-24 04:54:00,32.7,32.2,30.47,South,190,0.0,2.0,98,0.00,,---,0.00,0.00,VWS V14.01,2013-02-24 12:54:00,
2013-02-24 04:59:00,32.7,32.2,30.47,South,190,0.0,1.0,98,0.00,,---,0.00,0.00,VWS V14.01,2013-02-24 12:59:00,
2013-02-24 05:00:00,32.7,32.2,30.47,South,190,1.0,2.0,98,0.00,,---,0.00,0.00,VWS V14.01,2013-02-24 13:00:00,
2013-02-24 05:04:00,32.6,32.1,30.47,South,190,0.0,1.0,98,0.00,,---,0.00,0.00,VWS V14.01,2013-02-24 13:04:00,
2013-02-24 05:09:00,32.6,32.1,30.47,South,190,0.0,0.0,98,0.00,,---,0.00,0.00,VWS V14.01,2013-02-24 13:09:00,
2013-02-24 05:10:00,32.6,32.1,30.47,South,190,0.0,1.0,98,0.00,,---,0.00,0.00,VWS V14.01,2013-02-24 13:10:00,
2013-02-24 05:14:00,32.5,32.0,30.47,South,190,0.0,0.0,98,0.00,,---,0.00,0.00,VWS V14.01,2013-02-24 13:14:00,
2013-02-24 05:19:00,32.5,32.0,30.47,South,190,0.0,2.0,98,0.00,,---,0.00,0.00,VWS V14.01,2013-02-24 13:19:00,
2013-02-24 05:20:00,32.4,31.9,30.46,South,190,0.0,0.0,98,0.00,,---,0.00,0.00,VWS V14.01,2013-02-24 13:20:00,
2013-02-24 05:24:00,32.4,31.9,30.47,South,190,0.0,2.0,98,0.00,,---,0.00,0.00,VWS V14.01,2013-02-24 13:24:00,
2013-02-24 05:29:00,32.4,31.9,30.47,South,190,2.0,2.0,98,0.00,,---,0.00,0.00,VWS V14.01,2013-02-24 13:29:00,
2013-02-24 05:30:00,32.4,31.9,30.47,South,190,0.0,2.0,98,0.00,,---,0.00,0.00,VWS V14.01,2013-02-24 13:30:00,
2013-02-24 05:34:00,32.4,31.9,30.47,South,190,2.0,3.0,98,0.00,,---,0.00,0.00,VWS V14.01,2013-02-24 13:34:00,
2013-02-24 05:39:00,32.3,31.8,30.47,South,190,0.0,2.0,98,0.00,,---,0.00,0.00,VWS V14.01,2013-02-24 13:39:00,
2013-02-24 05:40:00,32.4,31.9,30.47,South,190,1.0,3.0,98,0.00,,---,0.00,0.00,VWS V14.01,2013-02-24 13:40:00,
2013-02-24 05:44:00,32.4,31.9,30.47,South,190,0.0,3.0,98,0.00,,---,0.00,0.00,VWS V14.01,2013-02-24 13:44:00,
2013-02-24 05:49:00,32.4,31.9,30.47,South,190,0.0,1.0,98,0.00,,---,0.00,0.00,VWS V14.01,2013-02-24 13:49:00,
2013-02-24 05:50:00,32.3,31.5,30.46,South,190,1.0,1.0,97,0.00,,---,0.00,0.00,VWS V14.01,2013-02-24 13:50:00,
2013-02-24 05:54:00,32.4,31.9,30.47,South,190,0.0,1.0,98,0.00,,---,0.00,0.00,VWS V14.01,2013-02-24 13:54:00,
2013-02-24 05:59:00,32.4,31.9,30.47,South,190,0.0,0.0,98,0.00,,---,0.00,0.00,VWS V14.01,2013-02-24 13:59:00,
2013-02-24 06:00:00,32.4,31.9,30.47,South,190,0.0,1.0,98,0.00,,---,0.00,0.00,VWS V14.01,2013-02-24 14:00:00,
2013-02-24 06:04:00,32.4,31.9,30.47,South,190,0.0,0.0,98,0.00,,---,0.00,0.00,VWS V14.01,2013-02-24 14:04:00,
2013-02-24 06:09:00,32.5,32.0,30.47,South,190,0.0,0.0,98,0.00,,---,0.00,0.00,VWS V14.01,2013-02-24 14:09:00,
2013-02-24 06:10:00,32.5,32.0,30.47,South,190,0.0,1.0,98,0.00,,---,0.00,0.00,VWS V14.01,2013-02-24 14:10:00,
2013-02-24 06:14:00,32.5,32.0,30.47,South,190,0.0,0.0,98,0.00,,---,0.00,0.00,VWS V14.01,2013-02-24 14:14:00,
2013-02-24 06:19:00,32.5,32.0,30.46,South,190,0.0,1.0,98,0.00,,---,0.00,0.00,VWS V14.01,2013-02-24 14:19:00,
2013-02-24 06:20:00,32.5,32.0,30.46,South,190,0.0,0.0,98,0.00,,---,0.00,0.00,VWS V14.01,2013-02-24 14:20:00,
2013-02-24 06:24:00,32.4,31.9,30.46,South,190,0.0,1.0,98,0.00,,---,0.00,0.00,VWS V14.01,2013-02-24 14:24:00,
2013-02-24 06:29:00,32.3,31.5,30.46,South,190,0.0,0.0,97,0.00,,---,0.00,0.00,VWS V14.01,2013-02-24 14:29:00,
2013-02-24 06:30:00,32.4,31.9,30.46,South,190,0.0,1.0,98,0.00,,---,0.00,0.00,VWS V14.01,2013-02-24 14:30:00,
2013-02-24 06:34:00,32.3,31.5,30.46,South,190,0.0,0.0,97,0.00,,---,0.00,0.00,VWS V14.01,2013-02-24 14:34:00,
2013-02-24 06:39:00,32.2,31.5,30.47,South,190,0.0,0.0,97,0.00,,---,0.00,0.00,VWS V14.01,2013-02-24 14:39:00,
2013-02-24 06:40:00,32.2,31.5,30.46,South,190,0.0,0.0,97,0.00,,---,0.00,0.00,VWS V14.01,2013-02-24 14:40:00,
2013-02-24 06:44:00,32.2,31.5,30.46,South,190,0.0,0.0,97,0.00,,---,0.00,0.00,VWS V14.01,2013-02-24 14:44:00,
2013-02-24 06:49:00,32.3,31.5,30.46,South,190,0.0,1.0,97,0.00,,---,0.00,0.00,VWS V14.01,2013-02-24 14:49:00,
2013-02-24 06:50:00,32.3,31.5,30.46,South,190,1.0,1.0,97,0.00,,---,0.00,0.00,VWS V14.01,2013-02-24 14:50:00,
2013-02-24 06:54:00,32.4,31.9,30.46,South,190,0.0,1.0,98,0.00,,---,0.00,0.00,VWS V14.01,2013-02-24 14:54:00,
2013-02-24 06:59:00,32.5,32.0,30.45,South,190,0.0,2.0,98,0.00,,---,0.00,0.00,VWS V14.01,2013-02-24 14:59:00,
2013-02-24 07:00:00,32.4,31.9,30.46,South,190,1.0,1.0,98,0.00,,---,0.00,0.00,VWS V14.01,2013-02-24 15:00:00,
2013-02-24 07:04:00,32.6,32.1,30.46,South,190,0.0,2.0,98,0.00,,---,0.00,7.00,VWS V14.01,2013-02-24 15:04:00,
2013-02-24 07:09:00,32.6,32.1,30.46,South,190,0.0,1.0,98,0.00,,---,0.00,11.00,VWS V14.01,2013-02-24 15:09:00,
2013-02-24 07:10:00,32.6,32.1,30.46,South,190,0.0,2.0,98,0.00,,---,0.00,9.00,VWS V14.01,2013-02-24 15:10:00,
2013-02-24 07:14:00,32.7,32.2,30.45,South,190,0.0,1.0,98,0.00,,---,0.00,12.00,VWS V14.01,2013-02-24 15:14:00,
2013-02-24 07:19:00,32.8,32.3,30.46,South,190,0.0,0.0,98,0.00,,---,0.00,14.00,VWS V14.01,2013-02-24 15:19:00,
2013-02-24 07:20:00,32.8,32.3,30.45,South,190,0.0,1.0,98,0.00,,---,0.00,14.00,VWS V14.01,2013-02-24 15:20:00,
2013-02-24 07:24:00,32.9,32.4,30.46,South,190,0.0,0.0,98,0.00,,---,0.00,16.00,VWS V14.01,2013-02-24 15:24:00,
2013-02-24 07:29:00,32.9,32.4,30.46,South,190,0.0,0.0,98,0.00,,---,0.00,18.00,VWS V14.01,2013-02-24 15:29:00,
2013-02-24 07:30:00,32.9,32.4,30.46,South,190,0.0,2.0,98,0.00,,---,0.00,18.00,VWS V14.01,2013-02-24 15:30:00,
2013-02-24 07:34:00,33.0,32.5,30.46,South,190,0.0,0.0,98,0.00,,---,0.00,21.00,VWS V14.01,2013-02-24 15:34:00,
2013-02-24 07:39:00,33.1,32.6,30.46,South,190,1.0,1.0,98,0.00,,---,0.00,26.00,VWS V14.01,2013-02-24 15:39:00,
2013-02-24 07:40:00,33.1,32.6,30.46,South,190,0.0,1.0,98,0.00,,---,0.00,23.00,VWS V14.01,2013-02-24 15:40:00,
2013-02-24 07:44:00,33.1,32.6,30.46,South,190,1.0,2.0,98,0.00,,---,0.00,30.00,VWS V14.01,2013-02-24 15:44:00,
2013-02-24 07:49:00,33.2,32.7,30.46,South,190,1.0,2.0,98,0.00,,---,0.00,37.00,VWS V14.01,2013-02-24 15:49:00,
2013-02-24 07:50:00,33.1,32.6,30.46,South,190,0.0,2.0,98,0.00,,---,0.00,33.00,VWS V14.01,2013-02-24 15:50:00,
2013-02-24 07:54:00,33.2,32.7,30.46,South,190,0.0,3.0,98,0.01,,---,0.01,47.00,VWS V14.01,2013-02-24 15:54:00,
2013-02-24 07:59:00,33.3,32.8,30.45,South,190,1.0,1.0,98,0.01,,---,0.01,47.00,VWS V14.01,2013-02-24 15:59:00,
2013-02-24 08:00:00,33.3,32.8,30.45,South,190,1.0,3.0,98,0.01,,---,0.01,46.00,VWS V14.01,2013-02-24 16:00:00,
2013-02-24 08:04:00,33.4,32.9,30.45,South,190,0.0,1.0,98,0.01,,---,0.01,47.00,VWS V14.01,2013-02-24 16:04:00,
2013-02-24 08:09:00,33.5,33.0,30.45,South,190,1.0,2.0,98,0.01,,---,0.01,53.00,VWS V14.01,2013-02-24 16:09:00,
2013-02-24 08:10:00,33.5,33.0,30.45,South,190,0.0,2.0,98,0.01,,---,0.01,47.00,VWS V14.01,2013-02-24 16:10:00,
2013-02-24 08:14:00,33.6,33.1,30.45,South,190,0.0,2.0,98,0.01,,---,0.01,62.00,VWS V14.01,2013-02-24 16:14:00,
2013-02-24 08:19:00,33.7,33.2,30.45,South,190,0.0,2.0,98,0.01,,---,0.01,76.00,VWS V14.01,2013-02-24 16:19:00,
2013-02-24 08:20:00,33.6,33.1,30.45,South,190,0.0,2.0,98,0.01,,---,0.01,72.00,VWS V14.01,2013-02-24 16:20:00,
2013-02-24 08:24:00,33.8,33.3,30.45,South,190,1.0,3.0,98,0.01,,---,0.01,86.00,VWS V14.01,2013-02-24 16:24:00,
2013-02-24 08:29:00,33.9,33.4,30.45,South,190,0.0,1.0,98,0.01,,---,0.01,114.00,VWS V14.01,2013-02-24 16:29:00,
2013-02-24 08:30:00,33.8,33.3,30.45,South,190,0.0,4.0,98,0.01,,---,0.01,105.00,VWS V14.01,2013-02-24 16:30:00,
2013-02-24 08:34:00,34.1,33.6,30.45,South,190,1.0,3.0,98,0.01,,---,0.01,123.00,VWS V14.01,2013-02-24 16:34:00,
2013-02-24 08:39:00,34.2,33.7,30.45,South,190,0.0,4.0,98,0.01,,---,0.01,125.00,VWS V14.01,2013-02-24 16:39:00,
2013-02-24 08:40:00,34.2,33.7,30.45,South,190,4.0,4.0,98,0.01,,---,0.01,125.00,VWS V14.01,2013-02-24 16:40:00,
2013-02-24 08:44:00,34.5,34.0,30.45,South,190,1.0,4.0,98,0.01,,---,0.01,142.00,VWS V14.01,2013-02-24 16:44:00,
2013-02-24 08:49:00,34.7,34.2,30.45,South,190,0.0,2.0,98,0.01,,---,0.01,151.00,VWS V14.01,2013-02-24 16:49:00,
2013-02-24 08:50:00,34.7,34.2,30.45,South,190,1.0,4.0,98,0.01,,---,0.01,146.00,VWS V14.01,2013-02-24 16:50:00,
2013-02-24 08:54:00,34.7,34.2,30.45,South,190,2.0,3.0,98,0.01,,---,0.01,158.00,VWS V14.01,2013-02-24 16:54:00,
2013-02-24 08:59:00,35.0,34.5,30.45,South,190,2.0,3.0,98,0.00,,---,0.01,169.00,VWS V14.01,2013-02-24 16:59:00,
2013-02-24 09:00:00,34.8,34.3,30.45,South,190,2.0,3.0,98,0.01,,---,0.01,162.00,VWS V14.01,2013-02-24 17:00:00,
2013-02-24 09:04:00,35.1,34.6,30.45,South,190,4.0,5.0,98,0.00,,---,0.01,183.00,VWS V14.01,2013-02-24 17:04:00,
2013-02-24 09:09:00,35.4,34.9,30.45,South,190,0.0,3.0,98,0.00,,---,0.01,190.00,VWS V14.01,2013-02-24 17:09:00,
2013-02-24 09:10:00,38.7,37.9,30.44,SSW,206,4.0,7.0,97,0.00,,---,0.01,469.00,VWS V14.01,2013-02-24 17:10:00,
2013-02-24 09:14:00,35.7,35.2,30.44,South,190,2.0,4.0,98,0.00,,---,0.01,190.00,VWS V14.01,2013-02-24 17:14:00,
2013-02-24 09:19:00,35.7,35.2,30.44,South,190,0.0,3.0,98,0.00,,---,0.01,190.00,VWS V14.01,2013-02-24 17:19:00,
2013-02-24 09:20:00,35.7,35.2,30.44,South,190,3.0,4.0,98,0.00,,---,0.01,190.00,VWS V14.01,2013-02-24 17:20:00,
2013-02-24 09:24:00,35.9,35.4,30.44,South,190,1.0,3.0,98,0.00,,---,0.01,207.00,VWS V14.01,2013-02-24 17:24:00,
2013-02-24 09:29:00,36.2,35.7,30.44,South,190,2.0,4.0,98,0.00,,---,0.01,239.00,VWS V14.01,2013-02-24 17:29:00,
2013-02-24 09:30:00,40.4,38.8,30.43,SSW,192,0.0,5.0,94,0.00,,---,0.01,462.00,VWS V14.01,2013-02-24 17:30:00,
2013-02-24 09:34:00,36.6,36.1,30.44,South,190,3.0,4.0,98,0.00,,---,0.01,239.00,VWS V14.01,2013-02-24 17:34:00,
2013-02-24 09:39:00,36.9,36.4,30.44,South,190,2.0,2.0,98,0.00,,---,0.01,237.00,VWS V14.01,2013-02-24 17:39:00,
2013-02-24 09:40:00,36.7,36.2,30.44,South,190,1.0,4.0,98,0.00,,---,0.01,236.00,VWS V14.01,2013-02-24 17:40:00,
2013-02-24 09:44:00,37.2,36.7,30.44,South,190,3.0,5.0,98,0.00,,---,0.01,246.00,VWS V14.01,2013-02-24 17:44:00,
2013-02-24 09:49:00,37.4,36.9,30.44,South,190,1.0,5.0,98,0.00,,---,0.01,274.00,VWS V14.01,2013-02-24 17:49:00,
2013-02-24 09:50:00,37.3,36.5,30.44,South,190,5.0,5.0,97,0.00,,---,0.01,262.00,VWS V14.01,2013-02-24 17:50:00,
2013-02-24 09:54:00,37.7,36.9,30.44,South,190,3.0,7.0,97,0.00,,---,0.01,260.00,VWS V14.01,2013-02-24 17:54:00,
2013-02-24 09:59:00,38.1,37.3,30.44,SSW,203,0.0,3.0,97,0.00,,---,0.01,190.00,VWS V14.01,2013-02-24 17:59:00,
2013-02-24 10:00:00,38.0,37.2,30.44,SSW,207,1.0,7.0,97,0.00,,---,0.01,202.00,VWS V14.01,2013-02-24 18:00:00,
2013-02-24 10:04:00,38.5,37.7,30.44,SSW,192,4.0,4.0,97,0.00,,---,0.01,432.00,VWS V14.01,2013-02-24 18:04:00,
2013-02-24 10:09:00,38.9,37.9,30.44,SSW,194,4.0,5.0,96,0.00,,---,0.01,475.00,VWS V14.01,2013-02-24 18:09:00,
2013-02-24 10:10:00,38.7,37.9,30.44,SSW,206,4.0,7.0,97,0.00,,---,0.01,469.00,VWS V14.01,2013-02-24 18:10:00,
2013-02-24 10:14:00,39.4,38.4,30.44,SSE,167,5.0,6.0,96,0.00,,---,0.01,457.00,VWS V14.01,2013-02-24 18:14:00,
2013-02-24 10:19:00,39.6,38.3,30.44,South,187,1.0,3.0,95,0.00,,---,0.01,468.00,VWS V14.01,2013-02-24 18:19:00,
2013-02-24 10:20:00,39.4,38.1,30.44,South,186,1.0,7.0,95,0.00,,---,0.01,446.00,VWS V14.01,2013-02-24 18:20:00,
2013-02-24 10:24:00,40.3,39.0,30.43,SSE,159,2.0,5.0,95,0.00,,---,0.01,462.00,VWS V14.01,2013-02-24 18:24:00,
2013-02-24 10:29:00,40.5,38.9,30.43,South,191,0.0,4.0,94,0.00,,---,0.01,503.00,VWS V14.01,2013-02-24 18:29:00,
2013-02-24 10:30:00,40.4,38.8,30.43,SSW,192,0.0,5.0,94,0.00,,---,0.01,462.00,VWS V14.01,2013-02-24 18:30:00,
2013-02-24 10:34:00,40.9,38.8,30.43,South,174,6.0,7.0,92,0.00,,---,0.01,487.00,VWS V14.01,2013-02-24 18:34:00,
2013-02-24 10:39:00,41.1,38.7,30.43,SSW,207,5.0,7.0,91,0.00,,---,0.01,510.00,VWS V14.01,2013-02-24 18:39:00,
2013-02-24 10:40:00,41.0,38.9,30.43,SSE,161,5.0,9.0,92,0.00,,---,0.01,503.00,VWS V14.01,2013-02-24 18:40:00,
2013-02-24 10:44:00,41.5,38.8,30.43,South,188,4.0,7.0,90,0.00,,---,0.01,533.00,VWS V14.01,2013-02-24 18:44:00,
2013-02-24 10:49:00,41.8,39.1,30.43,SW,218,4.0,5.0,90,0.00,,---,0.01,550.00,VWS V14.01,2013-02-24 18:49:00,
2013-02-24 10:50:00,41.7,39.0,30.43,South,186,5.0,7.0,90,0.00,,---,0.01,555.00,VWS V14.01,2013-02-24 18:50:00,
2013-02-24 10:54:00,42.4,40.2,30.43,SSE,162,5.0,5.0,92,0.00,,---,0.01,566.00,VWS V14.01,2013-02-24 18:54:00,
2013-02-24 10:59:00,42.5,39.5,30.42,SSW,210,4.0,5.0,89,0.00,,---,0.01,570.00,VWS V14.01,2013-02-24 18:59:00,
2013-02-24 11:00:00,42.5,39.2,30.42,South,186,3.0,6.0,88,0.00,,---,0.01,571.00,VWS V14.01,2013-02-24 19:00:00,
2013-02-24 11:04:00,42.6,39.6,30.42,SSW,193,7.0,9.0,89,0.00,,---,0.01,577.00,VWS V14.01,2013-02-24 19:04:00,
2013-02-24 11:09:00,43.0,40.3,30.42,SSW,193,4.0,4.0,90,0.00,,---,0.01,589.00,VWS V14.01,2013-02-24 19:09:00,
2013-02-24 11:10:00,42.7,39.4,30.42,South,188,2.0,9.0,88,0.00,,---,0.01,587.00,VWS V14.01,2013-02-24 19:10:00,
2013-02-24 11:14:00,43.4,39.8,30.42,South,173,2.0,6.0,87,0.00,,---,0.01,599.00,VWS V14.01,2013-02-24 19:14:00,
2013-02-24 11:19:00,43.7,39.5,30.42,SW,222,9.0,9.0,85,0.00,,---,0.01,606.00,VWS V14.01,2013-02-24 19:19:00,
2013-02-24 11:20:00,43.7,39.8,30.42,SW,217,5.0,6.0,86,0.00,,---,0.01,599.00,VWS V14.01,2013-02-24 19:20:00,
2013-02-24 11:24:00,43.9,39.4,30.41,South,179,3.0,10.0,84,0.00,,---,0.01,605.00,VWS V14.01,2013-02-24 19:24:00,
2013-02-24 11:29:00,44.1,39.6,30.41,SW,216,6.0,7.0,84,0.00,,---,0.01,624.00,VWS V14.01,2013-02-24 19:29:00,
2013-02-24 11:30:00,43.9,38.8,30.41,SW,234,0.0,10.0,82,0.00,,---,0.01,621.00,VWS V14.01,2013-02-24 19:30:00,
2013-02-24 11:34:00,44.2,39.1,30.41,SSW,196,3.0,10.0,82,0.00,,---,0.01,615.00,VWS V14.01,2013-02-24 19:34:00,
2013-02-24 11:39:00,44.5,38.7,30.41,SSE,158,5.0,7.0,80,0.00,,---,0.01,622.00,VWS V14.01,2013-02-24 19:39:00,
2013-02-24 11:40:00,44.4,38.6,30.41,SE,139,3.0,10.0,80,0.00,,---,0.01,621.00,VWS V14.01,2013-02-24 19:40:00,
2013-02-24 11:44:00,44.6,38.5,30.41,SSE,165,5.0,10.0,79,0.00,,---,0.01,631.00,VWS V14.01,2013-02-24 19:44:00,
2013-02-24 11:49:00,45.1,39.0,30.41,SSW,199,6.0,9.0,79,0.00,,---,0.01,631.00,VWS V14.01,2013-02-24 19:49:00,
2013-02-24 11:50:00,44.9,39.1,30.41,SSW,202,3.0,10.0,80,0.00,,---,0.01,635.00,VWS V14.01,2013-02-24 19:50:00,
2013-02-24 11:54:00,45.0,37.9,30.40,SSW,200,4.0,9.0,76,0.00,,---,0.01,638.00,VWS V14.01,2013-02-24 19:54:00,
2013-02-24 11:59:00,45.3,38.5,30.40,South,180,3.0,9.0,77,0.00,,---,0.01,663.00,VWS V14.01,2013-02-24 19:59:00,
2013-02-24 12:00:00,47.0,36.2,30.37,SSE,161,9.0,14.0,66,0.00,,---,0.01,628.00,VWS V14.01,2013-02-24 20:00:00,
2013-02-24 12:04:00,45.6,38.5,30.40,South,171,2.0,9.0,76,0.00,,---,0.01,691.00,VWS V14.01,2013-02-24 20:04:00,
2013-02-24 12:09:00,45.9,38.4,30.40,SE,139,5.0,7.0,75,0.00,,---,0.01,635.00,VWS V14.01,2013-02-24 20:09:00,
2013-02-24 12:10:00,45.9,38.8,30.40,SSE,157,4.0,9.0,76,0.00,,---,0.01,661.00,VWS V14.01,2013-02-24 20:10:00,
2013-02-24 12:14:00,46.1,38.3,30.39,SE,125,6.0,10.0,74,0.00,,---,0.01,696.00,VWS V14.01,2013-02-24 20:14:00,
2013-02-24 12:19:00,46.3,39.2,30.39,SSW,205,6.0,7.0,76,0.00,,---,0.01,700.00,VWS V14.01,2013-02-24 20:19:00,
2013-02-24 12:20:00,46.2,38.0,30.39,SE,142,2.0,10.0,73,0.00,,---,0.01,719.00,VWS V14.01,2013-02-24 20:20:00,
2013-02-24 12:24:00,46.6,38.8,30.39,SSW,194,0.0,7.0,74,0.00,,---,0.01,534.00,VWS V14.01,2013-02-24 20:24:00,
2013-02-24 12:29:00,46.6,38.1,30.39,SW,223,2.0,10.0,72,0.00,,---,0.01,652.00,VWS V14.01,2013-02-24 20:29:00,
2013-02-24 12:30:00,46.7,38.2,30.39,South,179,4.0,10.0,72,0.00,,---,0.01,659.00,VWS V14.01,2013-02-24 20:30:00,
2013-02-24 12:34:00,46.8,37.5,30.38,SSW,195,6.0,10.0,70,0.00,,---,0.01,643.00,VWS V14.01,2013-02-24 20:34:00,
2013-02-24 12:39:00,46.8,37.2,30.38,SSE,163,4.0,12.0,69,0.00,,---,0.01,619.00,VWS V14.01,2013-02-24 20:39:00,
2013-02-24 12:40:00,46.7,37.5,30.38,SSE,155,1.0,11.0,70,0.00,,---,0.01,628.00,VWS V14.01,2013-02-24 20:40:00,
2013-02-24 12:44:00,47.0,37.4,30.38,SSW,199,10.0,12.0,69,0.00,,---,0.01,624.00,VWS V14.01,2013-02-24 20:44:00,
2013-02-24 12:49:00,46.9,37.6,30.38,SSW,198,10.0,11.0,70,0.00,,---,0.01,629.00,VWS V14.01,2013-02-24 20:49:00,
2013-02-24 12:50:00,47.0,37.0,30.38,South,184,4.0,12.0,68,0.00,,---,0.01,628.00,VWS V14.01,2013-02-24 20:50:00,
2013-02-24 12:54:00,46.9,37.3,30.37,SSW,211,5.0,14.0,69,0.00,,---,0.01,636.00,VWS V14.01,2013-02-24 20:54:00,
2013-02-24 12:59:00,47.0,37.0,30.37,SSW,200,4.0,11.0,68,0.00,,---,0.01,610.00,VWS V14.01,2013-02-24 20:59:00,
2013-02-24 13:00:00,47.0,36.2,30.37,SSE,161,9.0,14.0,66,0.00,,---,0.01,628.00,VWS V14.01,2013-02-24 21:00:00,
2013-02-24 13:04:00,47.3,37.7,30.37,SSE,158,5.0,13.0,69,0.00,,---,0.01,575.00,VWS V14.01,2013-02-24 21:04:00,
2013-02-24 13:09:00,47.5,37.5,30.36,SSW,200,2.0,7.0,68,0.00,,---,0.01,577.00,VWS V14.01,2013-02-24 21:09:00,
2013-02-24 13:10:00,47.5,37.5,30.36,SSW,199,5.0,13.0,68,0.00,,---,0.01,566.00,VWS V14.01,2013-02-24 21:10:00,
2013-02-24 13:14:00,47.9,37.5,30.36,WSW,243,5.0,10.0,67,0.00,,---,0.01,599.00,VWS V14.01,2013-02-24 21:14:00,
2013-02-24 13:19:00,47.8,36.2,30.36,SSW,199,6.0,8.0,64,0.00,,---,0.01,606.00,VWS V14.01,2013-02-24 21:19:00,
2013-02-24 13:20:00,47.9,35.9,30.36,South,187,5.0,10.0,63,0.00,,---,0.01,612.00,VWS V14.01,2013-02-24 21:20:00,
2013-02-24 13:24:00,48.0,36.4,30.35,SW,229,8.0,12.0,64,0.00,,---,0.01,599.00,VWS V14.01,2013-02-24 21:24:00,
2013-02-24 13:29:00,48.3,37.5,30.35,South,175,6.0,10.0,66,0.00,,---,0.01,599.00,VWS V14.01,2013-02-24 21:29:00,
2013-02-24 13:30:00,48.2,36.6,30.35,SSW,199,5.0,12.0,64,0.00,,---,0.01,592.00,VWS V14.01,2013-02-24 21:30:00,
2013-02-24 13:34:00,48.2,35.8,30.35,South,175,7.0,11.0,62,0.00,,---,0.01,591.00,VWS V14.01,2013-02-24 21:34:00,
2013-02-24 13:39:00,48.4,38.0,30.35,SW,214,4.0,7.0,67,0.00,,---,0.01,527.00,VWS V14.01,2013-02-24 21:39:00,
2013-02-24 13:40:00,49.8,37.3,30.32,SE,140,3.0,11.0,62,0.00,,---,0.01,538.00,VWS V14.01,2013-02-24 21:40:00,
2013-02-24 13:44:00,48.7,38.2,30.34,SSW,198,8.0,9.0,67,0.00,,---,0.01,452.00,VWS V14.01,2013-02-24 21:44:00,
2013-02-24 13:49:00,48.5,36.5,30.34,SSW,198,10.0,10.0,63,0.00,,---,0.01,559.00,VWS V14.01,2013-02-24 21:49:00,
2013-02-24 13:50:00,48.7,37.1,30.34,SSE,165,4.0,9.0,64,0.00,,---,0.01,417.00,VWS V14.01,2013-02-24 21:50:00,
2013-02-24 13:54:00,48.2,37.0,30.34,South,178,3.0,11.0,65,0.00,,---,0.01,388.00,VWS V14.01,2013-02-24 21:54:00,
2013-02-24 13:59:00,48.1,36.5,30.34,SSW,192,9.0,13.0,64,0.00,,---,0.01,519.00,VWS V14.01,2013-02-24 21:59:00,
2013-02-24 14:00:00,48.2,37.0,30.34,South,191,5.0,11.0,65,0.00,,---,0.01,561.00,VWS V14.01,2013-02-24 22:00:00,
2013-02-24 14:04:00,48.4,37.6,30.33,SSW,194,1.0,13.0,66,0.00,,---,0.01,445.00,VWS V14.01,2013-02-24 22:04:00,
2013-02-24 14:09:00,48.5,37.3,30.33,ESE,120,3.0,10.0,65,0.00,,---,0.01,480.00,VWS V14.01,2013-02-24 22:09:00,
2013-02-24 14:10:00,48.6,37.4,30.33,SW,226,4.0,13.0,65,0.00,,---,0.01,445.00,VWS V14.01,2013-02-24 22:10:00,
2013-02-24 14:14:00,48.8,38.0,30.33,SE,138,5.0,10.0,66,0.00,,---,0.01,545.00,VWS V14.01,2013-02-24 22:14:00,
2013-02-24 14:19:00,49.2,38.7,30.32,South,175,5.0,6.0,67,0.00,,---,0.01,522.00,VWS V14.01,2013-02-24 22:19:00,
2013-02-24 14:20:00,49.0,38.2,30.32,South,182,2.0,10.0,66,0.00,,---,0.01,534.00,VWS V14.01,2013-02-24 22:20:00,
2013-02-24 14:24:00,49.7,37.6,30.32,SSW,205,6.0,13.0,63,0.00,,---,0.01,536.00,VWS V14.01,2013-02-24 22:24:00,
2013-02-24 14:29:00,49.5,37.4,30.32,South,175,3.0,11.0,63,0.00,,---,0.01,394.00,VWS V14.01,2013-02-24 22:29:00,
2013-02-24 14:30:00,49.7,37.6,30.32,SW,221,11.0,13.0,63,0.00,,---,0.01,510.00,VWS V14.01,2013-02-24 22:30:00,
2013-02-24 14:34:00,49.7,37.6,30.32,South,170,3.0,11.0,63,0.00,,---,0.01,446.00,VWS V14.01,2013-02-24 22:34:00,
2013-02-24 14:39:00,49.7,37.2,30.32,SSE,163,6.0,15.0,62,0.00,,---,0.01,531.00,VWS V14.01,2013-02-24 22:39:00,
2013-02-24 14:40:00,49.8,37.3,30.32,SE,140,3.0,11.0,62,0.00,,---,0.01,538.00,VWS V14.01,2013-02-24 22:40:00,
2013-02-24 14:44:00,49.7,38.0,30.32,SSE,152,3.0,15.0,64,0.00,,---,0.01,533.00,VWS V14.01,2013-02-24 22:44:00,
2013-02-24 14:49:00,49.7,37.2,30.31,South,177,3.0,5.0,62,0.00,,---,0.01,543.00,VWS V14.01,2013-02-24 22:49:00,
2013-02-24 14:50:00,49.7,38.8,30.31,SSE,162,1.0,15.0,66,0.00,,---,0.01,476.00,VWS V14.01,2013-02-24 22:50:00,
2013-02-24 14:54:00,49.9,38.2,30.31,South,170,9.0,9.0,64,0.00,,---,0.01,545.00,VWS V14.01,2013-02-24 22:54:00,
2013-02-24 14:59:00,50.2,37.7,30.31,SSW,202,4.0,12.0,62,0.00,,---,0.01,325.00,VWS V14.01,2013-02-24 22:59:00,
2013-02-24 15:00:00,50.2,38.5,30.31,SW,217,3.0,9.0,64,0.00,,---,0.01,563.00,VWS V14.01,2013-02-24 23:00:00,
2013-02-24 15:04:00,50.3,39.4,30.31,SW,217,4.0,12.0,66,0.00,,---,0.01,475.00,VWS V14.01,2013-02-24 23:04:00,
2013-02-24 15:09:00,50.6,39.3,30.30,South,178,4.0,7.0,65,0.00,,---,0.01,524.00,VWS V14.01,2013-02-24 23:09:00,
2013-02-24 15:10:00,50.5,39.2,30.30,SSW,200,3.0,12.0,65,0.00,,---,0.01,478.00,VWS V14.01,2013-02-24 23:10:00,
2013-02-24 15:14:00,50.6,38.5,30.30,SSW,194,4.0,14.0,63,0.00,,---,0.01,378.00,VWS V14.01,2013-02-24 23:14:00,
2013-02-24 15:19:00,50.4,38.3,30.29,South,190,0.0,2.0,63,0.00,,---,0.01,207.00,VWS V14.01,2013-02-24 23:19:00,
2013-02-24 15:20:00,50.4,38.7,30.29,South,188,2.0,14.0,64,0.00,,---,0.01,197.00,VWS V14.01,2013-02-24 23:20:00,
2013-02-24 15:24:00,50.1,38.4,30.29,SW,220,0.0,5.0,64,0.00,,---,0.01,246.00,VWS V14.01,2013-02-24 23:24:00,
2013-02-24 15:29:00,49.9,38.6,30.29,SSE,166,3.0,8.0,65,0.00,,---,0.01,302.00,VWS V14.01,2013-02-24 23:29:00,
2013-02-24 15:30:00,49.9,38.6,30.29,ESE,115,3.0,10.0,65,0.00,,---,0.01,267.00,VWS V14.01,2013-02-24 23:30:00,
2013-02-24 15:34:00,49.8,38.5,30.29,South,170,2.0,8.0,65,0.00,,---,0.01,262.00,VWS V14.01,2013-02-24 23:34:00,
2013-02-24 15:39:00,49.8,38.1,30.29,SW,223,4.0,6.0,64,0.00,,---,0.01,200.00,VWS V14.01,2013-02-24 23:39:00,
2013-02-24 15:40:00,49.8,38.5,30.29,SW,219,4.0,8.0,65,0.00,,---,0.01,206.00,VWS V14.01,2013-02-24 23:40:00,
2013-02-24 15:44:00,49.7,38.4,30.29,SSW,201,2.0,6.0,65,0.00,,---,0.01,193.00,VWS V14.01,2013-02-24 23:44:00,
2013-02-24 15:49:00,49.6,38.3,30.28,SSW,194,6.0,6.0,65,0.00,,---,0.01,269.00,VWS V14.01,2013-02-24 23:49:00,
2013-02-24 15:50:00,49.6,38.3,30.29,South,184,2.0,6.0,65,0.00,,---,0.01,260.00,VWS V14.01,2013-02-24 23:50:00,
2013-02-24 15:54:00,49.5,38.2,30.28,South,176,1.0,6.0,65,0.00,,---,0.01,227.00,VWS V14.01,2013-02-24 23:54:00,
2013-02-24 15:59:00,49.7,38.8,30.28,South,190,6.0,9.0,66,0.00,,---,0.01,237.00,VWS V14.01,2013-02-24 23:59:00,
2013-02-24 16:00:00,49.6,39.1,30.28,SW,226,3.0,6.0,67,0.00,,---,0.01,183.00,VWS V14.01,2013-02-25 00:00:00,
2013-02-24 16:04:00,49.7,38.4,30.28,SSW,208,6.0,9.0,65,0.00,,---,0.01,299.00,VWS V14.01,2013-02-25 00:04:00,
2013-02-24 16:09:00,49.8,38.5,30.28,South,178,1.0,9.0,65,0.00,,---,0.01,264.00,VWS V14.01,2013-02-25 00:09:00,
2013-02-24 16:10:00,49.8,38.9,30.28,SSE,159,9.0,10.0,66,0.00,,---,0.01,232.00,VWS V14.01,2013-02-25 00:10:00,
2013-02-24 16:14:00,49.9,38.6,30.28,South,189,4.0,9.0,65,0.00,,---,0.01,229.00,VWS V14.01,2013-02-25 00:14:00,
2013-02-24 16:19:00,49.9,39.0,30.27,SSW,204,3.0,4.0,66,0.00,,---,0.01,178.00,VWS V14.01,2013-02-25 00:19:00,
2013-02-24 16:20:00,49.9,38.6,30.27,South,186,2.0,11.0,65,0.00,,---,0.01,190.00,VWS V14.01,2013-02-25 00:20:00,
2013-02-24 16:23:00,49.7,38.4,30.27,South,188,3.0,6.0,65,0.00,,---,0.01,167.00,VWS V14.01,2013-02-25 00:23:00,
2013-02-24 16:28:00,49.7,39.2,30.27,South,178,4.0,5.0,67,0.00,,---,0.01,153.00,VWS V14.01,2013-02-25 00:28:00,
2013-02-24 16:30:00,47.3,39.1,30.24,SSW,196,0.0,2.0,73,0.00,,---,0.01,26.00,VWS V14.01,2013-02-25 00:30:00,
2013-02-24 16:33:00,49.5,38.2,30.27,South,177,3.0,9.0,65,0.00,,---,0.01,144.00,VWS V14.01,2013-02-25 00:33:00,
2013-02-24 16:38:00,49.3,38.4,30.27,South,182,3.0,4.0,66,0.00,,---,0.01,123.00,VWS V14.01,2013-02-25 00:38:00,
2013-02-24 16:40:00,49.4,38.1,30.27,South,169,3.0,9.0,65,0.00,,---,0.01,128.00,VWS V14.01,2013-02-25 00:40:00,
2013-02-24 16:43:00,49.1,38.2,30.26,SSW,198,1.0,7.0,66,0.00,,---,0.01,98.00,VWS V14.01,2013-02-25 00:43:00,
2013-02-24 16:48:00,48.9,38.1,30.26,South,179,4.0,6.0,66,0.00,,---,0.01,79.00,VWS V14.01,2013-02-25 00:48:00,
2013-02-24 16:50:00,45.8,39.0,30.24,SSW,196,0.0,1.0,77,0.00,,---,0.01,5.00,VWS V14.01,2013-02-25 00:50:00,
2013-02-24 16:53:00,48.7,38.6,30.26,South,191,3.0,6.0,68,0.00,,---,0.01,70.00,VWS V14.01,2013-02-25 00:53:00,
2013-02-24 16:58:00,48.5,38.4,30.26,SSW,196,2.0,2.0,68,0.00,,---,0.01,62.00,VWS V14.01,2013-02-25 00:58:00,
2013-02-24 17:00:00,48.5,38.4,30.26,South,191,0.0,6.0,68,0.00,,---,0.01,65.00,VWS V14.01,2013-02-25 01:00:00,
2013-02-24 17:03:00,48.3,38.6,30.25,SSW,196,4.0,4.0,69,0.00,,---,0.01,53.00,VWS V14.01,2013-02-25 01:03:00,
2013-02-24 17:08:00,48.1,38.4,30.25,SSW,196,0.0,2.0,69,0.00,,---,0.01,44.00,VWS V14.01,2013-02-25 01:08:00,
2013-02-24 17:10:00,48.1,38.4,30.25,SSW,196,0.0,4.0,69,0.00,,---,0.01,46.00,VWS V14.01,2013-02-25 01:10:00,
2013-02-24 17:13:00,47.9,38.6,30.25,SSW,196,0.0,2.0,70,0.00,,---,0.01,39.00,VWS V14.01,2013-02-25 01:13:00,
2013-02-24 17:18:00,47.7,38.8,30.25,SSW,196,1.0,2.0,71,0.00,,---,0.01,35.00,VWS V14.01,2013-02-25 01:18:00,
2013-02-24 17:20:00,47.7,38.8,30.25,SSW,196,0.0,2.0,71,0.00,,---,0.01,37.00,VWS V14.01,2013-02-25 01:20:00,
2013-02-24 17:23:00,47.5,38.9,30.25,SSW,196,0.0,2.0,72,0.00,,---,0.01,30.00,VWS V14.01,2013-02-25 01:23:00,
2013-02-24 17:28:00,47.2,39.0,30.24,SSW,196,0.0,0.0,73,0.00,,---,0.01,25.00,VWS V14.01,2013-02-25 01:28:00,
2013-02-24 17:30:00,47.3,39.1,30.24,SSW,196,0.0,2.0,73,0.00,,---,0.01,26.00,VWS V14.01,2013-02-25 01:30:00,
2013-02-24 17:33:00,46.9,39.1,30.24,SSW,196,0.0,1.0,74,0.00,,---,0.01,18.00,VWS V14.01,2013-02-25 01:33:00,
2013-02-24 17:38:00,46.6,39.1,30.24,SSW,196,0.0,0.0,75,0.00,,---,0.01,14.00,VWS V14.01,2013-02-25 01:38:00,
2013-02-24 17:40:00,46.7,39.2,30.24,SSW,196,0.0,1.0,75,0.00,,---,0.01,14.00,VWS V14.01,2013-02-25 01:40:00,
2013-02-24 17:43:00,46.2,38.7,30.24,SSW,196,0.0,1.0,75,0.00,,---,0.01,7.00,VWS V14.01,2013-02-25 01:43:00,
2013-02-24 17:49:00,45.6,39.2,30.24,SSW,196,0.0,1.0,78,0.00,,---,0.01,0.00,VWS V14.01,2013-02-25 01:49:00,
2013-02-24 17:50:00,45.8,39.0,30.24,SSW,196,0.0,1.0,77,0.00,,---,0.01,5.00,VWS V14.01,2013-02-25 01:50:00,
2013-02-24 17:54:00,45.2,38.8,30.23,SSW,196,0.0,1.0,78,0.00,,---,0.01,0.00,VWS V14.01,2013-02-25 01:54:00,
2013-02-24 17:59:00,44.9,38.8,30.23,SSW,196,0.0,0.0,79,0.00,,---,0.01,0.00,VWS V14.01,2013-02-25 01:59:00,
2013-02-24 18:00:00,44.9,38.8,30.23,SSW,196,0.0,1.0,79,0.00,,---,0.01,0.00,VWS V14.01,2013-02-25 02:00:00,
2013-02-24 18:04:00,44.5,38.7,30.23,SSW,196,0.0,0.0,80,0.00,,---,0.01,0.00,VWS V14.01,2013-02-25 02:04:00,
2013-02-24 18:08:00,44.2,38.4,30.23,SSW,196,0.0,0.0,80,0.00,,---,0.01,0.00,VWS V14.01,2013-02-25 02:08:00,
2013-02-24 18:10:00,44.3,38.5,30.23,SSW,196,0.0,0.0,80,0.00,,---,0.01,0.00,VWS V14.01,2013-02-25 02:10:00,
2013-02-24 18:13:00,43.8,38.4,30.23,SSW,196,0.0,0.0,81,0.00,,---,0.01,0.00,VWS V14.01,2013-02-25 02:13:00,
2013-02-24 18:18:00,43.4,38.3,30.23,SSW,196,0.0,0.0,82,0.00,,---,0.01,0.00,VWS V14.01,2013-02-25 02:18:00,
2013-02-24 18:20:00,43.6,38.2,30.23,SSW,196,0.0,0.0,81,0.00,,---,0.01,0.00,VWS V14.01,2013-02-25 02:20:00,
2013-02-24 18:23:00,43.0,37.9,30.22,SSW,196,0.0,0.0,82,0.00,,---,0.01,0.00,VWS V14.01,2013-02-25 02:23:00,
2013-02-24 18:28:00,42.7,37.9,30.22,SSW,196,0.0,0.0,83,0.00,,---,0.01,0.00,VWS V14.01,2013-02-25 02:28:00,
2013-02-24 18:30:00,40.5,37.2,30.21,SSW,196,0.0,0.0,88,0.00,,---,0.01,0.00,VWS V14.01,2013-02-25 02:30:00,
2013-02-24 18:33:00,42.4,37.9,30.22,SSW,196,0.0,0.0,84,0.00,,---,0.01,0.00,VWS V14.01,2013-02-25 02:33:00,
2013-02-24 18:38:00,42.1,37.6,30.21,SSW,196,0.0,0.0,84,0.00,,---,0.01,0.00,VWS V14.01,2013-02-25 02:38:00,
2013-02-24 18:40:00,42.1,37.6,30.22,SSW,196,0.0,0.0,84,0.00,,---,0.01,0.00,VWS V14.01,2013-02-25 02:40:00,
2013-02-24 18:43:00,41.8,37.6,30.21,SSW,196,0.0,0.0,85,0.00,,---,0.01,0.00,VWS V14.01,2013-02-25 02:43:00,
2013-02-24 18:48:00,41.4,37.5,30.21,SSW,196,0.0,0.0,86,0.00,,---,0.01,0.00,VWS V14.01,2013-02-25 02:48:00,
2013-02-24 18:50:00,41.5,37.3,30.21,SSW,196,0.0,1.0,85,0.00,,---,0.01,0.00,VWS V14.01,2013-02-25 02:50:00,
2013-02-24 18:53:00,41.2,37.3,30.21,SSW,196,0.0,0.0,86,0.00,,---,0.01,0.00,VWS V14.01,2013-02-25 02:53:00,
2013-02-24 18:58:00,41.0,37.1,30.21,SSW,196,0.0,0.0,86,0.00,,---,0.01,0.00,VWS V14.01,2013-02-25 02:58:00,
2013-02-24 19:00:00,41.0,37.1,30.21,SSW,196,0.0,0.0,86,0.00,,---,0.01,0.00,VWS V14.01,2013-02-25 03:00:00,
2013-02-24 19:03:00,40.9,37.3,30.21,SSW,196,0.0,0.0,87,0.00,,---,0.01,0.00,VWS V14.01,2013-02-25 03:03:00,
2013-02-24 19:08:00,40.8,37.5,30.21,SSW,196,0.0,0.0,88,0.00,,---,0.01,0.00,VWS V14.01,2013-02-25 03:08:00,
2013-02-24 19:10:00,40.8,37.5,30.21,SSW,196,0.0,0.0,88,0.00,,---,0.01,0.00,VWS V14.01,2013-02-25 03:10:00,
2013-02-24 19:13:00,40.7,37.4,30.21,SSW,196,0.0,1.0,88,0.00,,---,0.01,0.00,VWS V14.01,2013-02-25 03:13:00,
2013-02-24 19:18:00,40.7,37.4,30.21,SSW,196,0.0,0.0,88,0.00,,---,0.01,0.00,VWS V14.01,2013-02-25 03:18:00,
2013-02-24 19:20:00,40.7,37.4,30.21,SSW,196,0.0,1.0,88,0.00,,---,0.01,0.00,VWS V14.01,2013-02-25 03:20:00,
2013-02-24 19:23:00,40.6,37.3,30.21,SSW,196,0.0,0.0,88,0.00,,---,0.01,0.00,VWS V14.01,2013-02-25 03:23:00,
2013-02-24 19:28:00,40.5,37.2,30.21,SSW,196,0.0,0.0,88,0.00,,---,0.01,0.00,VWS V14.01,2013-02-25 03:28:00,
2013-02-24 19:30:00,40.5,37.2,30.21,SSW,196,0.0,0.0,88,0.00,,---,0.01,0.00,VWS V14.01,2013-02-25 03:30:00,
2013-02-24 19:33:00,40.3,37.0,30.20,SSW,196,0.0,1.0,88,0.00,,---,0.01,0.00,VWS V14.01,2013-02-25 03:33:00,
2013-02-24 19:38:00,40.0,36.7,30.20,SSW,196,0.0,0.0,88,0.00,,---,0.01,0.00,VWS V14.01,2013-02-25 03:38:00,
2013-02-24 19:40:00,40.0,36.7,30.20,SSW,196,0.0,1.0,88,0.00,,---,0.01,0.00,VWS V14.01,2013-02-25 03:40:00,
2013-02-24 19:43:00,39.7,36.4,30.20,SSW,196,0.0,0.0,88,0.00,,---,0.01,0.00,VWS V14.01,2013-02-25 03:43:00,
2013-02-24 19:48:00,39.5,36.5,30.20,SSW,196,0.0,0.0,89,0.00,,---,0.01,0.00,VWS V14.01,2013-02-25 03:48:00,
2013-02-24 19:50:00,39.6,36.6,30.20,SSW,196,0.0,0.0,89,0.00,,---,0.01,0.00,VWS V14.01,2013-02-25 03:50:00,
2013-02-24 19:53:00,39.6,36.9,30.20,SSW,196,0.0,2.0,90,0.00,,---,0.01,0.00,VWS V14.01,2013-02-25 03:53:00,
2013-02-24 19:58:00,39.8,36.8,30.19,SSW,196,0.0,0.0,89,0.00,,---,0.01,0.00,VWS V14.01,2013-02-25 03:58:00,
2013-02-24 20:00:00,39.7,36.7,30.19,SSW,196,0.0,2.0,89,0.00,,---,0.01,0.00,VWS V14.01,2013-02-25 04:00:00,
2013-02-24 20:03:00,39.8,36.5,30.19,SSW,196,0.0,1.0,88,0.00,,---,0.01,0.00,VWS V14.01,2013-02-25 04:03:00,
2013-02-24 20:08:00,39.7,36.4,30.19,SSW,196,0.0,0.0,88,0.00,,---,0.01,0.00,VWS V14.01,2013-02-25 04:08:00,
2013-02-24 20:10:00,39.7,36.4,30.19,SSW,196,0.0,1.0,88,0.00,,---,0.01,0.00,VWS V14.01,2013-02-25 04:10:00,
2013-02-24 20:13:00,39.7,36.7,30.19,SSW,196,0.0,0.0,89,0.00,,---,0.01,0.00,VWS V14.01,2013-02-25 04:13:00,
2013-02-24 20:18:00,39.6,36.6,30.19,SSW,196,0.0,0.0,89,0.00,,---,0.01,0.00,VWS V14.01,2013-02-25 04:18:00,
2013-02-24 20:20:00,39.7,36.7,30.19,SSW,196,0.0,0.0,89,0.00,,---,0.01,0.00,VWS V14.01,2013-02-25 04:20:00,
2013-02-24 20:23:00,39.7,36.7,30.19,SSW,196,0.0,1.0,89,0.00,,---,0.01,0.00,VWS V14.01,2013-02-25 04:23:00,
2013-02-24 20:28:00,39.7,36.7,30.18,SSW,196,0.0,0.0,89,0.00,,---,0.01,0.00,VWS V14.01,2013-02-25 04:28:00,
2013-02-24 20:30:00,39.7,36.7,30.18,SSW,196,0.0,1.0,89,0.00,,---,0.01,0.00,VWS V14.01,2013-02-25 04:30:00,
2013-02-24 20:33:00,39.6,36.6,30.18,SSW,196,0.0,0.0,89,0.00,,---,0.01,0.00,VWS V14.01,2013-02-25 04:33:00,
2013-02-24 20:38:00,39.4,36.4,30.18,SSW,196,0.0,0.0,89,0.00,,---,0.01,0.00,VWS V14.01,2013-02-25 04:38:00,
2013-02-24 20:40:00,39.5,36.5,30.18,SSW,196,0.0,0.0,89,0.00,,---,0.01,0.00,VWS V14.01,2013-02-25 04:40:00,
2013-02-24 20:43:00,39.2,36.2,30.18,SSW,196,0.0,0.0,89,0.00,,---,0.01,0.00,VWS V14.01,2013-02-25 04:43:00,
2013-02-24 20:48:00,39.0,36.0,30.18,SSW,196,0.0,0.0,89,0.00,,---,0.01,0.00,VWS V14.01,2013-02-25 04:48:00,
2013-02-24 20:50:00,39.0,36.0,30.18,SSW,196,0.0,0.0,89,0.00,,---,0.01,0.00,VWS V14.01,2013-02-25 04:50:00,
2013-02-24 20:53:00,38.9,36.2,30.17,SSW,196,0.0,0.0,90,0.00,,---,0.01,0.00,VWS V14.01,2013-02-25 04:53:00,
2013-02-24 20:58:00,38.9,36.5,30.17,SSW,196,0.0,0.0,91,0.00,,---,0.01,0.00,VWS V14.01,2013-02-25 04:58:00,
2013-02-24 21:00:00,38.9,36.5,30.17,SSW,196,0.0,1.0,91,0.00,,---,0.01,0.00,VWS V14.01,2013-02-25 05:00:00,
2013-02-24 21:05:00,39.3,36.9,30.17,SSW,196,0.0,1.0,91,0.00,,---,0.01,0.00,VWS V14.01,2013-02-25 05:05:00,
2013-02-24 21:10:00,39.6,37.2,30.18,SSW,196,0.0,1.0,91,0.00,,---,0.01,0.00,VWS V14.01,2013-02-25 05:10:00,
2013-02-24 21:15:00,40.2,38.1,30.17,SSW,196,0.0,4.0,92,0.00,,---,0.01,0.00,VWS V14.01,2013-02-25 05:15:00,
2013-02-24 21:20:00,41.1,38.7,30.18,SW,228,2.0,4.0,91,0.00,,---,0.01,0.00,VWS V14.01,2013-02-25 05:20:00,
2013-02-24 21:25:00,42.0,39.3,30.18,SSW,202,0.0,5.0,90,0.00,,---,0.01,0.00,VWS V14.01,2013-02-25 05:25:00,
2013-02-24 21:30:00,42.5,39.5,30.17,SSW,194,2.0,7.0,89,0.00,,---,0.01,0.00,VWS V14.01,2013-02-25 05:30:00,
2013-02-24 21:35:00,42.8,39.5,30.18,SSW,196,3.0,7.0,88,0.00,,---,0.01,0.00,VWS V14.01,2013-02-25 05:35:00,
2013-02-24 21:40:00,43.0,39.4,30.18,South,179,0.0,4.0,87,0.00,,---,0.01,0.00,VWS V14.01,2013-02-25 05:40:00,
2013-02-24 21:45:00,43.1,39.5,30.18,South,180,3.0,5.0,87,0.00,,---,0.01,0.00,VWS V14.01,2013-02-25 05:45:00,
2013-02-24 21:50:00,43.1,39.5,30.18,South,191,3.0,3.0,87,0.00,,---,0.01,0.00,VWS V14.01,2013-02-25 05:50:00,
2013-02-24 21:55:00,43.1,39.5,30.18,SSW,192,0.0,3.0,87,0.00,,---,0.01,0.00,VWS V14.01,2013-02-25 05:55:00,
2013-02-24 22:00:00,43.1,39.2,30.18,SSW,192,4.0,4.0,86,0.00,,---,0.01,0.00,VWS V14.01,2013-02-25 06:00:00,
2013-02-24 22:05:00,43.3,39.4,30.18,SSW,194,4.0,10.0,86,0.00,,---,0.01,0.00,VWS V14.01,2013-02-25 06:05:00,
2013-02-24 22:10:00,43.6,39.4,30.17,South,182,1.0,9.0,85,0.00,,---,0.01,0.00,VWS V14.01,2013-02-25 06:10:00,
2013-02-24 22:15:00,43.7,39.5,30.17,SSW,192,3.0,9.0,85,0.00,,---,0.01,0.00,VWS V14.01,2013-02-25 06:15:00,
2013-02-24 22:20:00,43.9,39.4,30.17,South,183,2.0,7.0,84,0.00,,---,0.01,0.00,VWS V14.01,2013-02-25 06:20:00,
2013-02-24 22:25:00,43.9,39.4,30.17,South,174,4.0,9.0,84,0.00,,---,0.01,0.00,VWS V14.01,2013-02-25 06:25:00,
2013-02-24 22:30:00,44.0,39.5,30.17,SSW,192,4.0,10.0,84,0.00,,---,0.01,0.00,VWS V14.01,2013-02-25 06:30:00,
2013-02-24 22:35:00,44.2,39.7,30.16,South,186,4.0,14.0,84,0.00,,---,0.01,0.00,VWS V14.01,2013-02-25 06:35:00,
2013-02-24 22:40:00,44.3,39.5,30.16,South,182,4.0,13.0,83,0.00,,---,0.01,0.00,VWS V14.01,2013-02-25 06:40:00,
2013-02-24 22:45:00,44.3,39.5,30.16,SSW,205,3.0,15.0,83,0.00,,---,0.01,0.00,VWS V14.01,2013-02-25 06:45:00,
2013-02-24 22:50:00,44.2,38.4,30.16,SSE,164,7.0,13.0,80,0.00,,---,0.01,0.00,VWS V14.01,2013-02-25 06:50:00,
2013-02-24 22:55:00,44.0,37.6,30.15,South,186,7.0,13.0,78,0.00,,---,0.01,0.00,VWS V14.01,2013-02-25 06:55:00,
2013-02-24 23:00:00,43.8,37.1,30.14,SSW,203,6.0,14.0,77,0.00,,---,0.01,0.00,VWS V14.01,2013-02-25 07:00:00,
2013-02-24 23:05:00,43.6,36.2,30.15,SSW,194,4.0,14.0,75,0.00,,---,0.01,0.00,VWS V14.01,2013-02-25 07:05:00,
2013-02-24 23:10:00,43.6,36.2,30.15,SSE,165,7.0,13.0,75,0.00,,---,0.01,0.00,VWS V14.01,2013-02-25 07:10:00,
2013-02-24 23:15:00,43.5,36.1,30.14,SSE,163,2.0,13.0,75,0.00,,---,0.01,0.00,VWS V14.01,2013-02-25 07:15:00,
2013-02-24 23:20:00,43.6,36.2,30.14,SSW,200,5.0,12.0,75,0.00,,---,0.01,0.00,VWS V14.01,2013-02-25 07:20:00,
2013-02-24 23:25:00,43.8,36.4,30.14,SSE,167,5.0,13.0,75,0.00,,---,0.01,0.00,VWS V14.01,2013-02-25 07:25:00,
2013-02-24 23:30:00,44.1,37.4,30.14,South,186,8.0,13.0,77,0.00,,---,0.01,0.00,VWS V14.01,2013-02-25 07:30:00,
2013-02-24 23:35:00,44.2,37.8,30.14,South,190,9.0,14.0,78,0.00,,---,0.01,0.00,VWS V14.01,2013-02-25 07:35:00,
2013-02-24 23:40:00,44.4,38.0,30.13,South,186,4.0,10.0,78,0.00,,---,0.01,0.00,VWS V14.01,2013-02-25 07:40:00,
2013-02-24 23:45:00,44.4,38.0,30.13,SSE,161,4.0,12.0,78,0.01,,---,0.02,0.00,VWS V14.01,2013-02-25 07:45:00,
2013-02-24 23:50:00,44.5,38.1,30.13,SSE,150,5.0,10.0,78,0.01,,---,0.02,0.00,VWS V14.01,2013-02-25 07:50:00,
2013-02-24 23:55:00,44.7,37.9,30.12,SE,146,4.0,11.0,77,0.01,,---,0.02,0.00,VWS V14.01,2013-02-25 07:55:00,